Alder Bend, New York
Current Conditions -  °F | °C
As of 9:53 AM on Tuesday 21 Oct 2014 (Local Time) from KPBG Reporting Station
Light Rain Light Rain  
Wind Chill: 44°   Ceiling: 5000
Heat Index: 46°   Visibility: 7mi
Dew Point: 45°   Wind: 5mph
Humidity: 96%   Direction: 340°NNW
Pressure: 29.98"   Gusts: NA
Location:  44.8543°N, 73.663°W
Report Text: KPBG 211353Z AUTO 34004KT 7SM -RA FEW011 OVC050 08/07 A2998 RMK AO2 SLP152 P0001 T00780072
Loading
Personal Weather Stations






























Interactive Weather Map
Tropical Storm Tracking
New forecast layout! Learn more

10-Day Weather Forecast

Advertisements
Track Severe Weather on mobile